Galt, Canada
Current Conditions -  °F | °C
As of 11:00 AM on Thursday 18 Dec 2014 (Local Time) from CYKF Reporting Station
Overcast Overcast  
Wind Chill: 20°   Ceiling: 1000
Heat Index: 28°   Visibility: 9mi
Dew Point: 25°   Wind: 9mph
Humidity: 86%   Direction: 310°NW
Pressure: 30.09"   Gusts: NA
Location:  43.35°N, 80.3°W
Report Text: CYKF 181600Z AUTO 31008KT 9SM OVC010 M02/M04 A3009 RMK SLP202
Loading
Personal Weather Stations






























Interactive Weather Map New forecast layout! Learn more

10-Day Weather Forecast

Advertisements
Track Severe Weather on mobile